Surfer 221 — FMLS — position and weather

sailwx.info

Track history (hours):
 
Tides and Currents Weather Stations Pressure Air Temp Water Temp Dewpoint Dewpoint Depression Visibility Wind Speed Wind Dir Waves Ship Positions

Surfer 221

Last reported at 2017-Sep-20 09:50 UTC. Time now 2017-Sep-25 06:17 UTC.
Position S 05°16' E 011°35'.

MMSI: 635014300.

Date/timePositionNaut miles runAvg speedWind from/ knotsBaromVisibWave heightAir tempDewpointWater temp
2017-Sep-20 09:50S 05°16' E 011°35'1 2.7
2017-Sep-20 09:25S 05°16' E 011°34'714.3
2017-Sep-20 08:57S 05°10' E 011°37'7 0.2
2017-Sep-18 14:21S 05°16' E 011°34'1 0.4
2017-Sep-18 13:04S 05°17' E 011°34'1 6.3
2017-Sep-18 12:59S 05°16' E 011°34'  
2017-Sep-15 15:20S 05°04' E 011°34'822.9
2017-Sep-15 15:00S 05°10' E 011°29'918.5
2017-Sep-15 14:30S 05°17' E 011°23'2 3.3
2017-Sep-15 14:01S 05°19' E 011°23'0 0.0
2017-Sep-15 13:30S 05°19' E 011°23'0 0.0
2017-Sep-15 12:58S 05°19' E 011°23'0 0.0
2017-Sep-15 12:24S 05°19' E 011°23'0 0.0
2017-Sep-15 12:00S 05°19' E 011°23'0 0.0
2017-Sep-15 11:30S 05°19' E 011°23'0 0.0
2017-Sep-15 10:59S 05°19' E 011°23'0 0.0
2017-Sep-15 10:22S 05°19' E 011°23'0 0.1
2017-Sep-15 10:01S 05°19' E 011°23'2 3.2
2017-Sep-15 09:30S 05°17' E 011°23'5 9.2
2017-Sep-15 09:00S 05°13' E 011°26'9 0.2
2017-Sep-13 14:27S 05°15' E 011°34'2 4.1
2017-Sep-13 13:58S 05°16' E 011°34'0 0.1
2017-Sep-13 10:15S 05°17' E 011°34'2 8.7
2017-Sep-13 10:00S 05°15' E 011°35'2 4.1
2017-Sep-13 09:25S 05°12' E 011°35'  
Track history (hours):
 
Tides and Currents Weather Stations Pressure Air Temp Water Temp Dewpoint Dewpoint Depression Visibility Wind Speed Wind Dir Waves Ship Positions

Surfer 221

Last reported at 2017-Sep-20 09:50 UTC. Time now 2017-Sep-25 06:17 UTC.
Position S 05°16' E 011°35'.

MMSI: 635014300.

Date/timePositionNaut miles runAvg speedWind from/ knotsBaromVisibWave heightAir tempDewpointWater temp
2017-Sep-20 09:50S 05°16' E 011°35'1 2.7
2017-Sep-20 09:25S 05°16' E 011°34'714.3
2017-Sep-20 08:57S 05°10' E 011°37'7 0.2
2017-Sep-18 14:21S 05°16' E 011°34'1 0.4
2017-Sep-18 13:04S 05°17' E 011°34'1 6.3
2017-Sep-18 12:59S 05°16' E 011°34'  
2017-Sep-15 15:20S 05°04' E 011°34'822.9
2017-Sep-15 15:00S 05°10' E 011°29'918.5
2017-Sep-15 14:30S 05°17' E 011°23'2 3.3
2017-Sep-15 14:01S 05°19' E 011°23'0 0.0
2017-Sep-15 13:30S 05°19' E 011°23'0 0.0
2017-Sep-15 12:58S 05°19' E 011°23'0 0.0
2017-Sep-15 12:24S 05°19' E 011°23'0 0.0
2017-Sep-15 12:00S 05°19' E 011°23'0 0.0
2017-Sep-15 11:30S 05°19' E 011°23'0 0.0
2017-Sep-15 10:59S 05°19' E 011°23'0 0.0
2017-Sep-15 10:22S 05°19' E 011°23'0 0.1
2017-Sep-15 10:01S 05°19' E 011°23'2 3.2
2017-Sep-15 09:30S 05°17' E 011°23'5 9.2
2017-Sep-15 09:00S 05°13' E 011°26'9 0.2
2017-Sep-13 14:27S 05°15' E 011°34'2 4.1
2017-Sep-13 13:58S 05°16' E 011°34'0 0.1
2017-Sep-13 10:15S 05°17' E 011°34'2 8.7
2017-Sep-13 10:00S 05°15' E 011°35'2 4.1
2017-Sep-13 09:25S 05°12' E 011°35'  

Dump ship's entire track history